Time;durP1;ratioP1;P1;durP2;ratioP2;P2;SDS_P1;SDS_P2;PMS_P1;PMS_P2;Temp;Humidity;BMP_temperature;BMP_pressure;BME280_temperature;BME280_humidity;BME280_pressure;Samples;Min_cycle;Max_cycle;Signal;HPM_P1;HPM_P2
2020/12/08 00:01:04;;;;;;;5.13;4.50;;;;;;;;;;6249545;22;20418;-75
2020/12/08 00:03:32;;;;;;;5.03;4.30;;;;;;;;;;6249747;22;20468;-74
2020/12/08 00:05:59;;;;;;;6.80;4.33;;;;;;;;;;6250226;22;20700;-75
2020/12/08 00:08:26;;;;;;;5.40;4.73;;;;;;;;;;6249045;22;20414;-74
2020/12/08 00:10:53;;;;;;;7.83;5.23;;;;;;;;;;6248940;22;20418;-75
2020/12/08 00:13:21;;;;;;;5.60;5.00;;;;;;;;;;6249414;22;20437;-74
2020/12/08 00:15:49;;;;;;;5.50;4.50;;;;;;;;;;6249590;22;20460;-75
2020/12/08 00:18:19;;;;;;;5.27;3.90;;;;;;;;;;6249233;22;20417;-74
2020/12/08 00:20:46;;;;;;;5.87;4.70;;;;;;;;;;6250119;22;20425;-74
2020/12/08 00:23:14;;;;;;;6.70;5.57;;;;;;;;;;6249046;22;20820;-74
2020/12/08 00:25:42;;;;;;;5.27;4.77;;;;;;;;;;6250017;22;20485;-74
2020/12/08 00:28:09;;;;;;;5.30;4.30;;;;;;;;;;6249269;22;20413;-74
2020/12/08 00:30:37;;;;;;;6.90;3.80;;;;;;;;;;6249978;22;20763;-74
2020/12/08 00:33:05;;;;;;;5.40;4.00;;;;;;;;;;6248981;22;20766;-74
2020/12/08 00:35:36;;;;;;;5.60;4.70;;;;;;;;;;6249210;22;20453;-74
2020/12/08 00:38:05;;;;;;;5.53;4.43;;;;;;;;;;6249641;22;20479;-75
2020/12/08 00:40:35;;;;;;;4.70;4.10;;;;;;;;;;6249368;22;20426;-75
2020/12/08 00:43:02;;;;;;;4.27;3.87;;;;;;;;;;6248771;22;20405;-74
2020/12/08 00:45:29;;;;;;;7.83;4.60;;;;;;;;;;6249453;22;20422;-74
2020/12/08 00:47:57;;;;;;;9.47;4.10;;;;;;;;;;6248734;22;20886;-74
2020/12/08 00:50:25;;;;;;;6.03;5.30;;;;;;;;;;6248833;22;20820;-74
2020/12/08 00:52:55;;;;;;;6.07;4.60;;;;;;;;;;6248579;22;20424;-75
2020/12/08 00:55:23;;;;;;;6.87;4.30;;;;;;;;;;6247673;22;20770;-74
2020/12/08 00:57:50;;;;;;;5.10;4.60;;;;;;;;;;6248060;22;20731;-74
2020/12/08 01:00:24;;;;;;;4.50;4.10;;;;;;;;;;6246254;22;20422;-74
2020/12/08 01:02:51;;;;;;;5.07;4.40;;;;;;;;;;6248258;22;20456;-75
2020/12/08 01:05:18;;;;;;;7.43;4.70;;;;;;;;;;6247968;22;20429;-74
2020/12/08 01:07:47;;;;;;;5.60;4.20;;;;;;;;;;6248179;22;20401;-74
2020/12/08 01:10:14;;;;;;;5.50;4.53;;;;;;;;;;6248317;22;20433;-74
2020/12/08 01:12:41;;;;;;;6.33;4.80;;;;;;;;;;6248037;22;20468;-74
2020/12/08 01:15:08;;;;;;;6.60;4.67;;;;;;;;;;6248200;22;20449;-74
2020/12/08 01:17:37;;;;;;;5.47;4.40;;;;;;;;;;6248541;22;20528;-75
2020/12/08 01:20:05;;;;;;;7.23;4.37;;;;;;;;;;6248694;22;20475;-74
2020/12/08 01:22:32;;;;;;;5.03;4.33;;;;;;;;;;6248190;22;20413;-74
2020/12/08 01:25:01;;;;;;;5.80;5.20;;;;;;;;;;6247286;22;20440;-75
2020/12/08 01:27:28;;;;;;;5.80;4.30;;;;;;;;;;6248724;22;20417;-74
2020/12/08 01:29:56;;;;;;;4.77;4.00;;;;;;;;;;6248162;22;20417;-73
2020/12/08 01:32:37;;;;;;;5.37;4.87;;;;;;;;;;6249366;22;20425;-74
2020/12/08 01:35:05;;;;;;;4.80;3.97;;;;;;;;;;6248822;22;20445;-72
2020/12/08 01:37:32;;;;;;;5.40;4.07;;;;;;;;;;6248414;22;20456;-74
2020/12/08 01:40:02;;;;;;;6.23;4.40;;;;;;;;;;6248564;22;20425;-74
2020/12/08 01:42:30;;;;;;;10.27;5.00;;;;;;;;;;6248599;22;20422;-73
2020/12/08 01:44:57;;;;;;;6.77;5.57;;;;;;;;;;6247902;22;20437;-73
2020/12/08 01:47:34;;;;;;;6.70;5.03;;;;;;;;;;6248683;22;20421;-74
2020/12/08 01:50:02;;;;;;;5.53;4.70;;;;;;;;;;6249168;22;20417;-75
2020/12/08 01:52:29;;;;;;;5.20;4.67;;;;;;;;;;6248104;22;20420;-75
2020/12/08 01:54:57;;;;;;;5.40;4.80;;;;;;;;;;6249479;22;20446;-74
2020/12/08 01:57:26;;;;;;;8.07;5.30;;;;;;;;;;6248192;22;20818;-73
2020/12/08 01:59:53;;;;;;;5.80;5.20;;;;;;;;;;6247788;22;20436;-74
2020/12/08 02:02:20;;;;;;;7.10;5.57;;;;;;;;;;6248274;22;20448;-74
2020/12/08 02:04:48;;;;;;;6.63;5.53;;;;;;;;;;6248112;22;20430;-74
2020/12/08 02:07:15;;;;;;;6.70;5.57;;;;;;;;;;6248973;22;20509;-75
2020/12/08 02:09:42;;;;;;;7.50;5.83;;;;;;;;;;6248580;22;20421;-74
2020/12/08 02:12:10;;;;;;;6.80;5.77;;;;;;;;;;6248196;22;20438;-74
2020/12/08 02:14:38;;;;;;;11.43;7.23;;;;;;;;;;6248776;22;20449;-74
2020/12/08 02:17:05;;;;;;;6.07;5.17;;;;;;;;;;6247221;22;20560;-74
2020/12/08 02:19:33;;;;;;;7.23;5.50;;;;;;;;;;6248386;22;20457;-74
2020/12/08 02:22:01;;;;;;;9.43;5.33;;;;;;;;;;6248668;22;20695;-74
2020/12/08 02:24:28;;;;;;;6.17;5.43;;;;;;;;;;6248008;22;20424;-74
2020/12/08 02:26:55;;;;;;;5.50;5.00;;;;;;;;;;6247483;22;20417;-74
2020/12/08 02:29:23;;;;;;;6.83;5.93;;;;;;;;;;6247845;22;20429;-74
2020/12/08 02:31:50;;;;;;;6.37;5.70;;;;;;;;;;6248314;22;20410;-74
2020/12/08 02:34:19;;;;;;;6.00;5.20;;;;;;;;;;6248037;22;20456;-74
2020/12/08 02:36:47;;;;;;;6.23;5.10;;;;;;;;;;6248223;22;20521;-74
2020/12/08 02:39:16;;;;;;;6.90;5.83;;;;;;;;;;6248024;22;20676;-74
2020/12/08 02:41:43;;;;;;;7.80;5.80;;;;;;;;;;6247293;22;20424;-74
2020/12/08 02:44:10;;;;;;;6.53;5.17;;;;;;;;;;6247980;22;20410;-74
2020/12/08 02:46:37;;;;;;;7.00;5.53;;;;;;;;;;6248170;22;20417;-74
2020/12/08 02:49:05;;;;;;;9.57;6.50;;;;;;;;;;6249452;22;20680;-74
2020/12/08 02:51:37;;;;;;;6.90;6.00;;;;;;;;;;6248286;22;20482;-74
2020/12/08 02:54:04;;;;;;;10.10;7.07;;;;;;;;;;6247694;22;20417;-74
2020/12/08 02:56:33;;;;;;;7.50;6.50;;;;;;;;;;6250491;22;20410;-74
2020/12/08 02:59:01;;;;;;;8.20;6.70;;;;;;;;;;6250005;22;20737;-74
2020/12/08 03:01:28;;;;;;;8.53;6.33;;;;;;;;;;6250709;22;20420;-74
2020/12/08 03:03:56;;;;;;;7.77;6.90;;;;;;;;;;6250477;22;20475;-74
2020/12/08 03:06:23;;;;;;;9.70;6.70;;;;;;;;;;6250380;22;20843;-74
2020/12/08 03:08:50;;;;;;;8.03;6.80;;;;;;;;;;6249846;22;20708;-74
2020/12/08 03:11:22;;;;;;;9.17;8.13;;;;;;;;;;6250572;22;20421;-73
2020/12/08 03:13:52;;;;;;;8.70;7.23;;;;;;;;;;6250055;22;20409;-74
2020/12/08 03:16:19;;;;;;;9.63;7.17;;;;;;;;;;6250491;22;20956;-74
2020/12/08 03:18:48;;;;;;;11.30;7.87;;;;;;;;;;6249738;22;20708;-74
2020/12/08 03:21:16;;;;;;;8.63;7.03;;;;;;;;;;6250306;22;20422;-74
2020/12/08 03:23:43;;;;;;;9.13;7.57;;;;;;;;;;6250191;22;20409;-74
2020/12/08 03:26:10;;;;;;;12.20;8.83;;;;;;;;;;6250706;22;20433;-74
2020/12/08 03:28:37;;;;;;;10.90;8.50;;;;;;;;;;6250286;22;20424;-74
2020/12/08 03:31:05;;;;;;;12.40;9.77;;;;;;;;;;6250349;22;20483;-74
2020/12/08 03:33:34;;;;;;;9.63;8.63;;;;;;;;;;6249504;22;20414;-74
2020/12/08 03:36:01;;;;;;;15.27;8.93;;;;;;;;;;6249972;22;20511;-74
2020/12/08 03:38:29;;;;;;;9.90;7.93;;;;;;;;;;6249787;22;20441;-74
2020/12/08 03:40:56;;;;;;;10.40;7.73;;;;;;;;;;6250621;22;20738;-75
2020/12/08 03:43:23;;;;;;;12.00;9.03;;;;;;;;;;6249883;22;20413;-75
2020/12/08 03:46:08;;;;;;;10.10;8.90;;;;;;;;;;6248835;22;21026;-73
2020/12/08 03:48:38;;;;;;;12.33;9.33;;;;;;;;;;6234579;22;20496;-73
2020/12/08 03:51:05;;;;;;;12.17;9.17;;;;;;;;;;6248683;22;20433;-75
2020/12/08 03:53:32;;;;;;;12.57;9.63;;;;;;;;;;6248492;22;20409;-74
2020/12/08 03:56:00;;;;;;;10.10;8.70;;;;;;;;;;6249092;22;20449;-74
2020/12/08 03:58:27;;;;;;;10.67;8.90;;;;;;;;;;6248740;22;20476;-74
2020/12/08 04:00:54;;;;;;;10.90;9.07;;;;;;;;;;6249755;22;20422;-74
2020/12/08 04:03:21;;;;;;;10.80;9.10;;;;;;;;;;6249176;22;20419;-74
2020/12/08 04:05:52;;;;;;;10.63;8.73;;;;;;;;;;6248891;22;20840;-74
2020/12/08 04:08:19;;;;;;;10.63;8.80;;;;;;;;;;6248941;22;20418;-74
2020/12/08 04:10:48;;;;;;;13.87;8.67;;;;;;;;;;6249825;22;20409;-74
2020/12/08 04:13:16;;;;;;;11.53;10.33;;;;;;;;;;6249851;22;20418;-75
2020/12/08 04:15:44;;;;;;;12.27;9.00;;;;;;;;;;6249343;22;20476;-75
2020/12/08 04:18:13;;;;;;;12.33;9.87;;;;;;;;;;6249709;22;20899;-74
2020/12/08 04:20:47;;;;;;;11.87;9.27;;;;;;;;;;6248997;22;20417;-75
2020/12/08 04:23:19;;;;;;;12.83;10.07;;;;;;;;;;6249674;22;20838;-74
2020/12/08 04:25:47;;;;;;;12.30;9.73;;;;;;;;;;6248816;22;20444;-74
2020/12/08 04:28:17;;;;;;;11.90;10.27;;;;;;;;;;6249020;22;20825;-74
2020/12/08 04:30:45;;;;;;;13.60;9.90;;;;;;;;;;6249735;22;20418;-73
2020/12/08 04:33:22;;;;;;;13.80;10.87;;;;;;;;;;6249514;22;20414;-74
2020/12/08 04:35:52;;;;;;;10.67;8.57;;;;;;;;;;6248813;22;20721;-75
2020/12/08 04:38:20;;;;;;;13.43;10.10;;;;;;;;;;6249314;22;20472;-73
2020/12/08 04:40:48;;;;;;;11.77;9.10;;;;;;;;;;6251290;22;20535;-74
2020/12/08 04:43:24;;;;;;;12.77;10.27;;;;;;;;;;6249504;22;20449;-74
2020/12/08 04:46:00;;;;;;;14.77;10.30;;;;;;;;;;6249644;22;20439;-75
2020/12/08 04:48:28;;;;;;;12.97;10.17;;;;;;;;;;6250588;22;20456;-74
2020/12/08 04:50:56;;;;;;;13.20;9.73;;;;;;;;;;6249367;22;20414;-74
2020/12/08 04:53:24;;;;;;;12.30;10.00;;;;;;;;;;6250285;22;20418;-75
2020/12/08 04:56:13;;;;;;;14.73;11.97;;;;;;;;;;6250793;22;20461;-73
2020/12/08 04:58:45;;;;;;;19.10;10.83;;;;;;;;;;6250044;22;20757;-73
2020/12/08 05:01:34;;;;;;;13.80;10.77;;;;;;;;;;6249064;22;20456;-74
2020/12/08 05:04:10;;;;;;;12.00;9.43;;;;;;;;;;6249210;22;20420;-74
2020/12/08 05:06:37;;;;;;;14.57;11.30;;;;;;;;;;6249318;22;20413;-78
2020/12/08 05:09:07;;;;;;;12.30;9.60;;;;;;;;;;6248809;22;20474;-74
2020/12/08 05:11:34;;;;;;;14.30;10.03;;;;;;;;;;6248400;22;20418;-74
2020/12/08 05:14:02;;;;;;;12.60;9.83;;;;;;;;;;6248320;22;20444;-74
2020/12/08 05:16:29;;;;;;;13.70;9.53;;;;;;;;;;6248103;22;20531;-74
2020/12/08 05:19:07;;;;;;;12.87;10.17;;;;;;;;;;6248474;22;20537;-74
2020/12/08 05:21:34;;;;;;;12.93;9.63;;;;;;;;;;6248993;22;20473;-74
2020/12/08 05:24:01;;;;;;;14.07;11.07;;;;;;;;;;6247913;22;20460;-74
2020/12/08 05:26:30;;;;;;;14.07;10.00;;;;;;;;;;6248819;22;20418;-73
2020/12/08 05:29:01;;;;;;;11.50;9.33;;;;;;;;;;6248331;22;20399;-74
2020/12/08 05:31:29;;;;;;;13.57;9.40;;;;;;;;;;6247691;22;20756;-74
2020/12/08 05:33:59;;;;;;;12.80;9.50;;;;;;;;;;6249203;22;20869;-74
2020/12/08 05:36:28;;;;;;;13.10;9.17;;;;;;;;;;6248032;22;20901;-74
2020/12/08 05:38:58;;;;;;;14.87;10.87;;;;;;;;;;6248355;22;20966;-74
2020/12/08 05:41:29;;;;;;;13.70;9.93;;;;;;;;;;6247781;22;20410;-74
2020/12/08 05:44:03;;;;;;;12.10;9.70;;;;;;;;;;6248194;22;20418;-74
2020/12/08 05:46:40;;;;;;;13.93;10.23;;;;;;;;;;6248161;22;20425;-73
2020/12/08 05:49:07;;;;;;;13.10;9.70;;;;;;;;;;6247463;22;20410;-74
2020/12/08 05:51:40;;;;;;;12.57;9.77;;;;;;;;;;6247297;22;20471;-74
2020/12/08 05:54:07;;;;;;;10.70;8.47;;;;;;;;;;6247817;22;20451;-73
2020/12/08 05:56:35;;;;;;;11.13;8.50;;;;;;;;;;6247769;22;20446;-73
2020/12/08 05:59:06;;;;;;;12.20;8.87;;;;;;;;;;6247391;22;20418;-74
2020/12/08 06:01:33;;;;;;;9.50;7.47;;;;;;;;;;6246633;22;20413;-73
2020/12/08 06:04:00;;;;;;;12.03;8.90;;;;;;;;;;6246737;22;20832;-75
2020/12/08 06:06:27;;;;;;;11.13;8.47;;;;;;;;;;6246736;22;20857;-73
2020/12/08 06:08:57;;;;;;;11.07;8.40;;;;;;;;;;6247160;22;20448;-74
2020/12/08 06:11:30;;;;;;;13.00;8.50;;;;;;;;;;6246641;22;20752;-74
2020/12/08 06:13:58;;;;;;;10.73;8.43;;;;;;;;;;6246505;22;20416;-73
2020/12/08 06:16:26;;;;;;;9.73;7.77;;;;;;;;;;6246809;22;20445;-73
2020/12/08 06:18:56;;;;;;;11.03;8.70;;;;;;;;;;6245307;22;20458;-74
2020/12/08 06:21:26;;;;;;;9.30;8.23;;;;;;;;;;6247361;22;20414;-74
2020/12/08 06:23:56;;;;;;;11.20;8.40;;;;;;;;;;6245836;22;20410;-74
2020/12/08 06:26:25;;;;;;;12.57;7.70;;;;;;;;;;6245064;22;20413;-75
2020/12/08 06:28:56;;;;;;;11.60;8.83;;;;;;;;;;6245851;22;20421;-73
2020/12/08 06:31:24;;;;;;;10.73;8.43;;;;;;;;;;6247237;22;20420;-73
2020/12/08 06:33:52;;;;;;;10.70;8.17;;;;;;;;;;6245185;22;20440;-72
2020/12/08 06:36:20;;;;;;;10.57;8.17;;;;;;;;;;6247267;22;20446;-74
2020/12/08 06:39:00;;;;;;;11.10;8.50;;;;;;;;;;6247256;22;20439;-74
2020/12/08 06:41:32;;;;;;;10.50;8.97;;;;;;;;;;6246669;22;20471;-73
2020/12/08 06:44:00;;;;;;;10.60;8.27;;;;;;;;;;6245816;22;20421;-74
2020/12/08 06:46:28;;;;;;;8.70;7.80;;;;;;;;;;6246275;22;20474;-74
2020/12/08 06:49:17;;;;;;;14.60;9.33;;;;;;;;;;6247308;22;20535;-75
2020/12/08 06:51:45;;;;;;;18.93;10.23;;;;;;;;;;6234219;22;20475;-74
2020/12/08 06:54:13;;;;;;;13.20;8.60;;;;;;;;;;6247180;22;20461;-74
2020/12/08 06:56:40;;;;;;;12.43;8.93;;;;;;;;;;6246496;22;20767;-74
2020/12/08 06:59:08;;;;;;;12.07;8.83;;;;;;;;;;6246522;22;20861;-73
2020/12/08 07:01:36;;;;;;;12.43;9.50;;;;;;;;;;6246497;22;20421;-73
2020/12/08 07:04:03;;;;;;;12.23;10.00;;;;;;;;;;6247369;22;20414;-74
2020/12/08 07:06:31;;;;;;;9.73;8.10;;;;;;;;;;6255484;22;20451;-73
2020/12/08 07:08:59;;;;;;;13.90;9.80;;;;;;;;;;6252653;22;20467;-74
2020/12/08 07:11:26;;;;;;;10.80;8.63;;;;;;;;;;6247115;22;20471;-74
2020/12/08 07:13:57;;;;;;;12.80;10.37;;;;;;;;;;6246694;22;20456;-74
2020/12/08 07:16:34;;;;;;;9.30;8.20;;;;;;;;;;6247450;22;20472;-74
2020/12/08 07:19:23;;;;;;;;;;;;;;;;;;;;;
2020/12/08 07:21:57;;;;;;;13.13;9.70;;;;;;;;;;6248140;22;20524;-74
2020/12/08 07:27:20;;;;;;;13.50;9.63;;;;;;;;;;6242053;22;20480;-76
2020/12/08 07:30:04;;;;;;;11.30;9.30;;;;;;;;;;6248986;22;20478;-74
2020/12/08 07:32:35;;;;;;;13.70;10.23;;;;;;;;;;6249920;22;20524;-75
2020/12/08 07:35:03;;;;;;;17.40;11.93;;;;;;;;;;6248784;22;20498;-74
2020/12/08 07:37:44;;;;;;;14.77;10.70;;;;;;;;;;6248372;22;20425;-75
2020/12/08 07:40:12;;;;;;;18.03;12.97;;;;;;;;;;6248243;22;20747;-74
2020/12/08 07:42:40;;;;;;;12.27;10.10;;;;;;;;;;6247830;22;20413;-74
2020/12/08 07:45:09;;;;;;;13.27;11.37;;;;;;;;;;6247962;22;20495;-75
2020/12/08 07:47:40;;;;;;;13.77;10.70;;;;;;;;;;6248875;22;20449;-74
2020/12/08 07:50:09;;;;;;;13.47;10.77;;;;;;;;;;6248794;22;20426;-74
2020/12/08 07:53:03;;;;;;;13.47;11.00;;;;;;;;;;6247838;22;20441;-75
2020/12/08 07:55:38;;;;;;;12.23;8.93;;;;;;;;;;6246755;22;20446;-73
2020/12/08 07:58:14;;;;;;;13.93;11.13;;;;;;;;;;6247276;22;20677;-74
2020/12/08 08:00:53;;;;;;;12.70;9.73;;;;;;;;;;6247140;22;20428;-74
2020/12/08 08:03:25;;;;;;;13.90;11.60;;;;;;;;;;6247551;22;20418;-74
2020/12/08 08:05:57;;;;;;;15.37;10.07;;;;;;;;;;6247171;22;20437;-74
2020/12/08 08:08:26;;;;;;;13.70;9.60;;;;;;;;;;6247377;22;20444;-75
2020/12/08 08:10:55;;;;;;;12.10;9.87;;;;;;;;;;6248230;22;20414;-75
2020/12/08 08:13:25;;;;;;;12.60;10.47;;;;;;;;;;6249441;22;20414;-75
2020/12/08 08:15:59;;;;;;;12.93;10.67;;;;;;;;;;6248807;22;20782;-75
2020/12/08 08:18:27;;;;;;;12.97;11.33;;;;;;;;;;6248121;22;20449;-74
2020/12/08 08:20:56;;;;;;;14.10;11.47;;;;;;;;;;6248693;22;21097;-74
2020/12/08 08:23:24;;;;;;;11.97;10.30;;;;;;;;;;6247278;22;20774;-73
2020/12/08 08:25:55;;;;;;;12.20;9.30;;;;;;;;;;6247458;22;20854;-74
2020/12/08 08:28:29;;;;;;;11.63;9.53;;;;;;;;;;6245805;22;20487;-74
2020/12/08 08:31:00;;;;;;;13.70;9.03;;;;;;;;;;6247831;22;20445;-73
2020/12/08 08:33:28;;;;;;;12.63;10.47;;;;;;;;;;6246267;22;20707;-73
2020/12/08 08:35:59;;;;;;;14.20;9.90;;;;;;;;;;6247706;22;20467;-74
2020/12/08 08:38:31;;;;;;;12.67;9.97;;;;;;;;;;6247668;22;20414;-73
2020/12/08 08:41:03;;;;;;;15.60;10.50;;;;;;;;;;6248596;22;20430;-76
2020/12/08 08:43:32;;;;;;;12.60;10.30;;;;;;;;;;6247742;22;20429;-74
2020/12/08 08:46:03;;;;;;;15.00;11.20;;;;;;;;;;6247166;22;20438;-73
2020/12/08 08:48:31;;;;;;;11.77;9.80;;;;;;;;;;6246447;22;20413;-73
2020/12/08 08:50:58;;;;;;;14.23;10.47;;;;;;;;;;6247666;22;20417;-73
2020/12/08 08:53:25;;;;;;;12.30;10.97;;;;;;;;;;6247452;22;20704;-73
2020/12/08 08:55:52;;;;;;;13.70;11.10;;;;;;;;;;6246622;22;20506;-73
2020/12/08 08:58:20;;;;;;;15.40;10.90;;;;;;;;;;6247524;22;21060;-73
2020/12/08 09:00:52;;;;;;;14.37;11.20;;;;;;;;;;6247654;22;20549;-75
2020/12/08 09:03:21;;;;;;;12.43;9.80;;;;;;;;;;6246789;22;20429;-75
2020/12/08 09:05:49;;;;;;;12.17;9.97;;;;;;;;;;6247155;22;20426;-74
2020/12/08 09:08:18;;;;;;;11.90;10.40;;;;;;;;;;6247085;22;20424;-74
2020/12/08 09:10:45;;;;;;;17.57;12.30;;;;;;;;;;6247079;22;20421;-74
2020/12/08 09:13:16;;;;;;;16.50;12.60;;;;;;;;;;6247345;22;20471;-74
2020/12/08 09:15:46;;;;;;;15.00;10.87;;;;;;;;;;6247212;22;20445;-74
2020/12/08 09:18:19;;;;;;;14.50;10.30;;;;;;;;;;6247295;22;20414;-74
2020/12/08 09:20:49;;;;;;;16.73;10.73;;;;;;;;;;6248502;22;20842;-74
2020/12/08 09:23:27;;;;;;;;;;;;;;;;;;;;;
2020/12/08 09:26:05;;;;;;;16.63;12.10;;;;;;;;;;6248151;22;20851;-74
2020/12/08 09:28:42;;;;;;;15.73;12.60;;;;;;;;;;6247977;22;20766;-75
2020/12/08 09:31:15;;;;;;;15.93;11.80;;;;;;;;;;6248096;22;20428;-75
2020/12/08 09:33:53;;;;;;;13.90;11.10;;;;;;;;;;6248299;22;20414;-74
2020/12/08 09:36:26;;;;;;;13.50;10.50;;;;;;;;;;6248186;22;20453;-74
2020/12/08 09:39:16;;;;;;;15.63;12.03;;;;;;;;;;6247272;22;20432;-74
2020/12/08 09:41:55;;;;;;;15.27;12.87;;;;;;;;;;6122878;23;20442;-75
2020/12/08 09:44:25;;;;;;;16.53;11.27;;;;;;;;;;6238477;22;20426;-73
2020/12/08 09:47:30;;;;;;;15.10;12.33;;;;;;;;;;6246550;22;20457;-73
2020/12/08 09:50:06;;;;;;;15.00;12.10;;;;;;;;;;6246956;22;20425;-74
2020/12/08 09:52:45;;;;;;;14.80;11.53;;;;;;;;;;6245384;22;20429;-75
2020/12/08 09:55:32;;;;;;;14.13;12.20;;;;;;;;;;6244954;22;20855;-73
2020/12/08 09:57:59;;;;;;;14.40;11.13;;;;;;;;;;6247063;22;20414;-74
2020/12/08 10:00:44;;;;;;;19.10;13.17;;;;;;;;;;6246654;22;20441;-74
2020/12/08 10:03:17;;;;;;;15.27;13.37;;;;;;;;;;6247375;22;20840;-73
2020/12/08 10:06:06;;;;;;;;;;;;;;;;;;;;;
2020/12/08 10:11:24;;;;;;;15.83;13.30;;;;;;;;;;6245109;22;20520;-75
2020/12/08 10:14:01;;;;;;;18.67;13.10;;;;;;;;;;6244676;22;20463;-75
2020/12/08 10:16:31;;;;;;;22.17;13.43;;;;;;;;;;6245010;22;20448;-75
2020/12/08 10:19:00;;;;;;;15.03;12.70;;;;;;;;;;6245286;22;20862;-74
2020/12/08 10:22:18;;;;;;;16.67;13.00;;;;;;;;;;6245897;22;20414;-74
2020/12/08 10:28:01;;;;;;;16.13;11.97;;;;;;;;;;6245524;22;20861;-75
2020/12/08 10:33:46;;;;;;;16.70;13.20;;;;;;;;;;6240792;22;20440;-74
2020/12/08 10:39:16;;;;;;;17.30;13.67;;;;;;;;;;6243224;22;20414;-74
2020/12/08 10:41:53;;;;;;;21.00;13.87;;;;;;;;;;6244550;22;20413;-74
2020/12/08 10:44:23;;;;;;;15.30;12.70;;;;;;;;;;6243231;22;20478;-71
2020/12/08 10:46:51;;;;;;;15.47;12.07;;;;;;;;;;6244398;22;20433;-73
2020/12/08 10:49:19;;;;;;;13.00;10.87;;;;;;;;;;6245569;22;20425;-74
2020/12/08 10:51:59;;;;;;;14.97;13.23;;;;;;;;;;6245330;22;20440;-72
2020/12/08 10:54:48;;;;;;;15.33;13.03;;;;;;;;;;6245139;22;20409;-74
2020/12/08 10:57:29;;;;;;;16.20;13.37;;;;;;;;;;6243164;22;20454;-74
2020/12/08 11:00:18;;;;;;;14.73;11.23;;;;;;;;;;6246347;22;20468;-73
2020/12/08 11:03:16;;;;;;;16.57;12.63;;;;;;;;;;6202496;22;20440;-75
2020/12/08 11:05:50;;;;;;;18.50;14.20;;;;;;;;;;6246288;22;20433;-73
2020/12/08 11:08:24;;;;;;;14.63;12.07;;;;;;;;;;6245543;22;20475;-73
2020/12/08 11:10:51;;;;;;;14.70;11.67;;;;;;;;;;6245419;22;20421;-74
2020/12/08 11:13:23;;;;;;;21.70;16.07;;;;;;;;;;6244075;22;20402;-74
2020/12/08 11:16:09;;;;;;;20.70;14.10;;;;;;;;;;6247519;22;20449;-72
2020/12/08 11:18:40;;;;;;;19.83;14.73;;;;;;;;;;6248592;22;20483;-73
2020/12/08 11:21:08;;;;;;;28.77;17.47;;;;;;;;;;6248241;22;20740;-73
2020/12/08 11:23:35;;;;;;;22.80;15.47;;;;;;;;;;6245459;22;20471;-73
2020/12/08 11:26:05;;;;;;;21.80;17.10;;;;;;;;;;6245551;22;20420;-72
2020/12/08 11:28:56;;;;;;;29.67;19.60;;;;;;;;;;6245777;22;20449;-74
2020/12/08 11:31:24;;;;;;;30.00;17.90;;;;;;;;;;6246654;22;20445;-74
2020/12/08 11:33:51;;;;;;;30.10;19.37;;;;;;;;;;6247014;22;20425;-74
2020/12/08 11:36:20;;;;;;;24.30;16.80;;;;;;;;;;6246530;22;20833;-74
2020/12/08 11:38:48;;;;;;;29.00;19.70;;;;;;;;;;6248602;22;20464;-73
2020/12/08 11:41:16;;;;;;;28.20;17.90;;;;;;;;;;6246744;22;20405;-74
2020/12/08 11:43:45;;;;;;;23.30;18.20;;;;;;;;;;6247497;22;20760;-74
2020/12/08 11:46:18;;;;;;;30.30;19.17;;;;;;;;;;6247745;22;20422;-74
2020/12/08 11:48:55;;;;;;;30.07;18.17;;;;;;;;;;6247688;22;20425;-73
2020/12/08 11:51:26;;;;;;;26.20;18.07;;;;;;;;;;6248487;22;20525;-74
2020/12/08 11:53:55;;;;;;;27.07;18.53;;;;;;;;;;6246697;22;20803;-73
2020/12/08 11:56:23;;;;;;;29.37;19.50;;;;;;;;;;6246851;22;20465;-73
2020/12/08 11:58:53;;;;;;;25.63;18.60;;;;;;;;;;6247321;22;20429;-76
2020/12/08 12:01:20;;;;;;;28.00;19.73;;;;;;;;;;6247784;22;20554;-74
2020/12/08 12:03:50;;;;;;;28.73;18.37;;;;;;;;;;6247789;22;20421;-74
2020/12/08 12:06:18;;;;;;;29.73;19.07;;;;;;;;;;6247092;22;20417;-74
2020/12/08 12:08:45;;;;;;;31.57;21.40;;;;;;;;;;6246900;22;20453;-74
2020/12/08 12:11:12;;;;;;;34.60;20.23;;;;;;;;;;6246668;22;20416;-73
2020/12/08 12:13:43;;;;;;;29.00;19.00;;;;;;;;;;6245980;22;20547;-74
2020/12/08 12:16:11;;;;;;;31.03;20.00;;;;;;;;;;6246601;22;20452;-74
2020/12/08 12:18:38;;;;;;;34.27;21.57;;;;;;;;;;6246243;22;20865;-73
2020/12/08 12:21:06;;;;;;;29.07;19.60;;;;;;;;;;6245282;22;20465;-73
2020/12/08 12:23:33;;;;;;;31.00;20.97;;;;;;;;;;6246172;22;20472;-74
2020/12/08 12:26:04;;;;;;;31.73;20.80;;;;;;;;;;6245193;22;20426;-73
2020/12/08 12:28:32;;;;;;;33.73;21.67;;;;;;;;;;6245168;22;20874;-73
2020/12/08 12:31:02;;;;;;;35.73;23.20;;;;;;;;;;6245871;22;20418;-73
2020/12/08 12:33:31;;;;;;;35.77;21.10;;;;;;;;;;6245693;22;20480;-74
2020/12/08 12:35:58;;;;;;;34.17;21.70;;;;;;;;;;6245492;22;20441;-73
2020/12/08 12:38:25;;;;;;;37.30;21.43;;;;;;;;;;6247422;22;20422;-74
2020/12/08 12:40:56;;;;;;;35.83;21.10;;;;;;;;;;6246330;22;20418;-73
2020/12/08 12:43:26;;;;;;;31.03;20.40;;;;;;;;;;6246424;22;20416;-73
2020/12/08 12:45:53;;;;;;;40.27;22.37;;;;;;;;;;6246935;22;20418;-73
2020/12/08 12:48:20;;;;;;;35.87;21.87;;;;;;;;;;6246241;22;20436;-73
2020/12/08 12:50:49;;;;;;;36.93;23.27;;;;;;;;;;6246212;22;20424;-73
2020/12/08 12:53:19;;;;;;;36.63;21.90;;;;;;;;;;6245569;22;20597;-74
2020/12/08 12:55:50;;;;;;;29.23;20.20;;;;;;;;;;6246174;22;20451;-75
2020/12/08 12:58:19;;;;;;;31.10;20.17;;;;;;;;;;6245081;22;21059;-75
2020/12/08 13:00:47;;;;;;;32.50;19.07;;;;;;;;;;6245862;22;20741;-74
2020/12/08 13:03:20;;;;;;;36.73;21.50;;;;;;;;;;6245679;22;20418;-73
2020/12/08 13:05:48;;;;;;;35.30;20.50;;;;;;;;;;6246731;22;20428;-73
2020/12/08 13:08:16;;;;;;;35.00;21.10;;;;;;;;;;6246124;22;20840;-74
2020/12/08 13:10:46;;;;;;;37.33;22.73;;;;;;;;;;6244589;22;20479;-73
2020/12/08 13:13:13;;;;;;;33.13;21.97;;;;;;;;;;6243913;22;20413;-73
2020/12/08 13:15:41;;;;;;;38.97;23.03;;;;;;;;;;6245819;22;20499;-74
2020/12/08 13:18:08;;;;;;;31.67;20.53;;;;;;;;;;6247176;22;20417;-75
2020/12/08 13:20:35;;;;;;;38.33;23.70;;;;;;;;;;6246740;22;20436;-74
2020/12/08 13:23:05;;;;;;;40.87;23.87;;;;;;;;;;6245931;22;20495;-73
2020/12/08 13:25:34;;;;;;;39.03;24.20;;;;;;;;;;6246393;22;20750;-74
2020/12/08 13:28:01;;;;;;;38.07;23.47;;;;;;;;;;6247328;22;20418;-75
2020/12/08 13:30:29;;;;;;;37.43;22.47;;;;;;;;;;6246536;22;20422;-74
2020/12/08 13:32:56;;;;;;;38.17;23.70;;;;;;;;;;6246925;22;21039;-74
2020/12/08 13:35:23;;;;;;;39.00;24.15;;;;;;;;;;6245377;22;20417;-74
2020/12/08 13:37:51;;;;;;;37.37;24.10;;;;;;;;;;6245351;22;20514;-74
2020/12/08 13:40:18;;;;;;;36.00;23.87;;;;;;;;;;6246132;22;20427;-74
2020/12/08 13:42:50;;;;;;;40.77;23.90;;;;;;;;;;6245695;22;20501;-74
2020/12/08 13:45:17;;;;;;;40.43;24.17;;;;;;;;;;6243716;22;20421;-73
2020/12/08 13:47:44;;;;;;;39.57;25.93;;;;;;;;;;6245935;22;20715;-73
2020/12/08 13:50:14;;;;;;;42.23;26.13;;;;;;;;;;6246892;22;20834;-73
2020/12/08 13:52:44;;;;;;;42.20;25.00;;;;;;;;;;6246232;22;20421;-73
2020/12/08 13:55:12;;;;;;;42.30;26.70;;;;;;;;;;6246595;22;20487;-73
2020/12/08 13:57:40;;;;;;;39.30;25.27;;;;;;;;;;6246105;22;20440;-74
2020/12/08 14:00:11;;;;;;;39.80;24.43;;;;;;;;;;6246091;22;20414;-74
2020/12/08 14:02:38;;;;;;;42.00;25.60;;;;;;;;;;6246688;22;20417;-74
2020/12/08 14:05:08;;;;;;;45.57;27.97;;;;;;;;;;6247689;22;20410;-74
2020/12/08 14:07:37;;;;;;;47.13;27.00;;;;;;;;;;6249804;22;20448;-75
2020/12/08 14:10:04;;;;;;;41.23;26.53;;;;;;;;;;6246401;22;20580;-74
2020/12/08 14:12:31;;;;;;;41.23;27.53;;;;;;;;;;6245276;22;20422;-74
2020/12/08 14:15:01;;;;;;;40.63;24.47;;;;;;;;;;6244485;22;20436;-74
2020/12/08 14:17:30;;;;;;;45.20;24.13;;;;;;;;;;6243584;22;20518;-75
2020/12/08 14:19:57;;;;;;;41.23;25.80;;;;;;;;;;6246129;22;20417;-74
2020/12/08 14:22:33;;;;;;;46.67;27.30;;;;;;;;;;6245428;22;20419;-74
2020/12/08 14:25:09;;;;;;;37.67;23.63;;;;;;;;;;6245369;22;20417;-74
2020/12/08 14:27:37;;;;;;;41.80;24.70;;;;;;;;;;6245006;22;20448;-75
2020/12/08 14:30:05;;;;;;;40.20;26.40;;;;;;;;;;6244812;22;20433;-74
2020/12/08 14:32:37;;;;;;;39.80;25.67;;;;;;;;;;6244345;22;20505;-74
2020/12/08 14:35:05;;;;;;;41.33;24.20;;;;;;;;;;6243761;22;20455;-74
2020/12/08 14:37:33;;;;;;;43.93;25.70;;;;;;;;;;6246504;22;21014;-74
2020/12/08 14:40:04;;;;;;;37.90;25.13;;;;;;;;;;6244318;22;20733;-74
2020/12/08 14:42:32;;;;;;;42.17;24.83;;;;;;;;;;6244130;22;20414;-75
2020/12/08 14:45:00;;;;;;;38.40;24.80;;;;;;;;;;6244666;22;20422;-75
2020/12/08 14:47:30;;;;;;;42.57;27.10;;;;;;;;;;6245709;22;20725;-73
2020/12/08 14:50:06;;;;;;;38.73;27.13;;;;;;;;;;6243671;22;20424;-74
2020/12/08 14:52:34;;;;;;;43.67;25.50;;;;;;;;;;6247286;22;20422;-74
2020/12/08 14:55:04;;;;;;;43.10;26.57;;;;;;;;;;6247152;22;20420;-75
2020/12/08 14:57:31;;;;;;;43.57;26.33;;;;;;;;;;6245661;22;20507;-73
2020/12/08 14:59:59;;;;;;;45.20;25.00;;;;;;;;;;6247793;22;20417;-75
2020/12/08 15:02:47;;;;;;;46.67;28.80;;;;;;;;;;6244373;22;20439;-74